createdAt,value
2017-11-28T00:00:27.684Z,0.00
2017-11-28T00:01:27.694Z,0.00
2017-11-28T00:02:27.739Z,0.00
2017-11-28T00:03:27.724Z,0.00
2017-11-28T00:04:27.741Z,0.00
2017-11-28T00:05:27.753Z,0.00
2017-11-28T00:06:27.763Z,0.00
2017-11-28T00:07:27.784Z,0.00
2017-11-28T00:08:27.793Z,0.00
2017-11-28T00:09:28.110Z,0.00
2017-11-28T00:10:27.822Z,0.00
2017-11-28T00:11:27.839Z,0.00
2017-11-28T00:12:27.859Z,0.00
2017-11-28T00:13:27.862Z,0.00
2017-11-28T00:14:27.877Z,0.00
2017-11-28T00:15:27.892Z,0.00
2017-11-28T00:16:27.901Z,0.00
2017-11-28T00:17:27.911Z,0.00
2017-11-28T00:18:27.931Z,0.00
2017-11-28T00:19:27.946Z,0.00
2017-11-28T00:20:27.968Z,0.00
2017-11-28T00:21:27.977Z,0.00
2017-11-28T00:22:27.987Z,0.00
2017-11-28T00:23:28.001Z,0.00
2017-11-28T00:24:28.017Z,0.00
2017-11-28T00:25:28.031Z,0.00
2017-11-28T00:26:28.047Z,0.00
2017-11-28T00:27:28.049Z,0.00
2017-11-28T00:28:28.072Z,0.00
2017-11-28T00:29:28.089Z,0.00
2017-11-28T00:30:28.102Z,0.00
2017-11-28T00:31:28.109Z,0.00
2017-11-28T00:32:28.126Z,0.00
2017-11-28T00:33:28.146Z,0.00
2017-11-28T00:34:28.156Z,0.00
2017-11-28T00:35:28.164Z,0.00
2017-11-28T00:36:28.186Z,0.00
2017-11-28T00:37:28.196Z,0.00
2017-11-28T00:38:28.209Z,0.00
2017-11-28T00:39:28.220Z,0.00
2017-11-28T00:40:28.233Z,0.00
2017-11-28T00:41:28.249Z,0.00
2017-11-28T00:42:28.265Z,0.00
2017-11-28T00:43:28.273Z,0.00
2017-11-28T00:44:28.594Z,0.00
2017-11-28T00:45:28.297Z,0.00
2017-11-28T00:46:28.320Z,0.00
2017-11-28T00:47:28.333Z,0.00
2017-11-28T00:48:28.343Z,0.00
2017-11-28T00:49:28.363Z,0.00
2017-11-28T00:50:28.373Z,0.00
2017-11-28T00:51:28.387Z,0.00
2017-11-28T00:52:28.398Z,0.00
2017-11-28T00:53:28.412Z,0.00
2017-11-28T00:54:28.427Z,0.00
2017-11-28T00:55:28.436Z,0.00
2017-11-28T00:56:28.456Z,0.00
2017-11-28T00:57:28.468Z,0.00
2017-11-28T00:58:28.474Z,0.00
2017-11-28T00:59:28.797Z,0.00
2017-11-28T01:00:28.523Z,0.00
2017-11-28T01:01:28.526Z,0.00
2017-11-28T01:02:28.535Z,0.00
2017-11-28T01:03:28.551Z,0.00
2017-11-28T01:04:28.572Z,0.00
2017-11-28T01:05:28.575Z,0.00
2017-11-28T01:06:28.591Z,0.00
2017-11-28T01:07:28.608Z,0.00
2017-11-28T01:08:28.620Z,0.00
2017-11-28T01:09:28.642Z,0.00
2017-11-28T01:10:28.651Z,0.00
2017-11-28T01:11:28.653Z,0.00
2017-11-28T01:12:28.681Z,0.00
2017-11-28T01:13:28.689Z,0.00
2017-11-28T01:14:28.705Z,0.00
2017-11-28T01:15:28.713Z,0.00
2017-11-28T01:16:28.729Z,0.00
2017-11-28T01:17:28.743Z,0.00
2017-11-28T01:18:28.765Z,0.00
2017-11-28T01:19:28.780Z,0.00
2017-11-28T01:20:28.789Z,0.00
2017-11-28T01:21:28.792Z,0.00
2017-11-28T01:22:28.819Z,0.00
2017-11-28T01:23:28.828Z,0.00
2017-11-28T01:24:28.843Z,0.00
2017-11-28T01:25:28.858Z,0.00
2017-11-28T01:26:28.861Z,0.00
2017-11-28T01:27:28.895Z,0.00
2017-11-28T01:28:28.892Z,0.00
2017-11-28T01:29:29.163Z,0.00
2017-11-28T01:30:28.922Z,0.00
2017-11-28T01:31:28.937Z,0.00
2017-11-28T01:32:28.961Z,0.00
2017-11-28T01:33:28.967Z,0.00
2017-11-28T01:34:28.983Z,0.00
2017-11-28T01:35:29.004Z,0.00
2017-11-28T01:36:28.999Z,0.00
2017-11-28T01:37:29.028Z,0.00
2017-11-28T01:38:29.039Z,0.00
2017-11-28T01:39:29.054Z,0.00
2017-11-28T01:40:29.067Z,0.00
2017-11-28T01:41:29.080Z,0.00
2017-11-28T01:42:29.091Z,0.00
2017-11-28T01:43:29.100Z,0.00
2017-11-28T01:44:29.378Z,0.00
2017-11-28T01:45:29.142Z,0.00
2017-11-28T01:46:29.139Z,0.00
2017-11-28T01:47:29.160Z,0.00
2017-11-28T01:48:29.176Z,0.00
2017-11-28T01:49:29.196Z,0.00
2017-11-28T01:50:29.199Z,0.00
2017-11-28T01:51:29.240Z,0.00
2017-11-28T01:52:29.232Z,0.00
2017-11-28T01:53:29.239Z,0.00
2017-11-28T01:54:29.272Z,0.00
2017-11-28T01:55:29.275Z,0.00
2017-11-28T01:56:29.279Z,0.00
2017-11-28T01:57:29.299Z,0.00
2017-11-28T01:58:29.309Z,0.00
2017-11-28T01:59:29.634Z,0.00
2017-11-28T02:00:29.344Z,0.00
2017-11-28T02:01:29.353Z,0.00
2017-11-28T02:02:29.369Z,0.00
2017-11-28T02:03:29.386Z,0.00
2017-11-28T02:04:29.405Z,0.00
2017-11-28T02:05:29.422Z,0.00
2017-11-28T02:06:29.417Z,0.00
2017-11-28T02:07:29.447Z,0.00
2017-11-28T02:08:29.458Z,0.00
2017-11-28T02:09:29.469Z,0.00
2017-11-28T02:10:29.482Z,0.00
2017-11-28T02:11:29.493Z,0.00
2017-11-28T02:12:29.513Z,0.00
2017-11-28T02:13:29.523Z,0.00
2017-11-28T02:14:29.558Z,0.00
2017-11-28T02:15:29.546Z,0.00
2017-11-28T02:16:29.556Z,0.00
2017-11-28T02:17:29.577Z,0.00
2017-11-28T02:18:29.603Z,0.00
2017-11-28T02:19:29.602Z,0.00
2017-11-28T02:20:29.623Z,0.00
2017-11-28T02:21:29.624Z,0.00
2017-11-28T02:22:29.652Z,0.00
2017-11-28T02:23:29.655Z,0.00
2017-11-28T02:24:29.665Z,0.00
2017-11-28T02:25:29.693Z,0.00
2017-11-28T02:26:29.697Z,0.00
2017-11-28T02:27:29.715Z,0.00
2017-11-28T02:28:29.734Z,0.00
2017-11-28T02:29:30.084Z,0.00
2017-11-28T02:30:29.762Z,0.00
2017-11-28T02:31:29.766Z,0.00
2017-11-28T02:32:29.785Z,0.00
2017-11-28T02:33:29.795Z,0.00
2017-11-28T02:34:29.803Z,0.00
2017-11-28T02:35:29.826Z,0.00
2017-11-28T02:36:29.837Z,0.00
2017-11-28T02:37:29.855Z,0.00
2017-11-28T02:38:29.864Z,0.00
2017-11-28T02:39:30.674Z,0.00
2017-11-28T02:40:29.900Z,0.00
2017-11-28T02:41:29.908Z,0.00
2017-11-28T02:42:29.932Z,0.00
2017-11-28T02:43:29.933Z,0.00
2017-11-28T02:44:29.959Z,0.00
2017-11-28T02:45:29.969Z,0.00
2017-11-28T02:46:29.978Z,0.00
2017-11-28T02:47:29.994Z,0.00
2017-11-28T02:48:30.010Z,0.00
2017-11-28T02:49:30.033Z,0.00
2017-11-28T02:50:30.041Z,0.00
2017-11-28T02:51:30.043Z,0.00
2017-11-28T02:52:30.059Z,0.00
2017-11-28T02:53:30.072Z,0.00
2017-11-28T02:54:30.089Z,0.00
2017-11-28T02:55:30.104Z,0.00
2017-11-28T02:56:30.119Z,0.00
2017-11-28T02:57:30.139Z,0.00
2017-11-28T02:58:30.140Z,0.00
2017-11-28T02:59:30.457Z,0.00
2017-11-28T03:00:30.178Z,0.00
2017-11-28T03:01:30.187Z,0.00
2017-11-28T03:02:30.202Z,0.00
2017-11-28T03:03:30.217Z,0.00
2017-11-28T03:04:30.226Z,0.00
2017-11-28T03:05:30.247Z,0.00
2017-11-28T03:06:30.250Z,0.00
2017-11-28T03:07:30.266Z,0.00
2017-11-28T03:08:30.280Z,0.00
2017-11-28T03:09:30.289Z,0.00
2017-11-28T03:10:30.316Z,0.00
2017-11-28T03:11:30.326Z,0.00
2017-11-28T03:12:30.329Z,0.00
2017-11-28T03:13:30.356Z,0.00
2017-11-28T03:14:30.360Z,0.00
2017-11-28T03:15:30.380Z,0.00
2017-11-28T03:16:30.393Z,0.00
2017-11-28T03:17:30.399Z,0.00
2017-11-28T03:18:30.424Z,0.00
2017-11-28T03:19:30.678Z,0.00
2017-11-28T03:20:30.469Z,0.00
2017-11-28T03:21:30.457Z,0.00
2017-11-28T03:22:30.469Z,0.00
2017-11-28T03:23:30.489Z,0.00
2017-11-28T03:24:30.503Z,0.00
2017-11-28T03:25:30.526Z,0.00
2017-11-28T03:26:30.527Z,0.00
2017-11-28T03:27:30.539Z,0.00
2017-11-28T03:28:30.559Z,0.00
2017-11-28T03:29:30.573Z,0.00
2017-11-28T03:30:30.590Z,0.00
2017-11-28T03:31:30.597Z,0.00
2017-11-28T03:32:30.618Z,0.00
2017-11-28T03:33:30.627Z,0.00
2017-11-28T03:34:30.637Z,0.00
2017-11-28T03:35:30.659Z,0.00
2017-11-28T03:36:30.673Z,0.00
2017-11-28T03:37:30.688Z,0.00
2017-11-28T03:38:30.697Z,0.00
2017-11-28T03:39:30.967Z,0.00
2017-11-28T03:40:30.733Z,0.00
2017-11-28T03:41:30.737Z,0.00
2017-11-28T03:42:30.763Z,0.00
2017-11-28T03:43:30.773Z,0.00
2017-11-28T03:44:30.777Z,0.00
2017-11-28T03:45:30.796Z,0.00
2017-11-28T03:46:30.811Z,0.00
2017-11-28T03:47:30.832Z,0.00
2017-11-28T03:48:30.842Z,0.00
2017-11-28T03:49:30.866Z,0.00
2017-11-28T03:50:30.879Z,0.00
2017-11-28T03:51:30.875Z,0.00
2017-11-28T03:52:30.896Z,0.00
2017-11-28T03:53:30.907Z,0.00
2017-11-28T03:54:30.933Z,0.00
2017-11-28T03:55:30.943Z,0.00
2017-11-28T03:56:30.953Z,0.00
2017-11-28T03:57:30.971Z,0.00
2017-11-28T03:58:30.981Z,0.00
2017-11-28T03:59:31.296Z,0.00
2017-11-28T04:00:31.005Z,0.00
2017-11-28T04:01:31.032Z,0.00
2017-11-28T04:02:31.041Z,0.00
2017-11-28T04:03:31.051Z,0.00
2017-11-28T04:04:31.065Z,0.00
2017-11-28T04:05:31.085Z,0.00
2017-11-28T04:06:31.102Z,0.00
2017-11-28T04:07:31.111Z,0.00
2017-11-28T04:08:31.126Z,0.00
2017-11-28T04:09:31.141Z,0.00
2017-11-28T04:10:31.162Z,0.00
2017-11-28T04:11:31.173Z,0.00
2017-11-28T04:12:31.182Z,0.00
2017-11-28T04:13:31.195Z,0.00
2017-11-28T04:14:31.204Z,0.00
2017-11-28T04:15:31.226Z,0.00
2017-11-28T04:16:31.235Z,0.00
2017-11-28T04:17:31.257Z,0.00
2017-11-28T04:18:31.265Z,0.00
2017-11-28T04:19:31.275Z,0.00
2017-11-28T04:20:31.295Z,0.00
2017-11-28T04:21:31.312Z,0.00
2017-11-28T04:22:31.325Z,0.00
2017-11-28T04:23:31.334Z,0.00
2017-11-28T04:24:31.356Z,0.00
2017-11-28T04:25:31.375Z,0.00
2017-11-28T04:26:31.376Z,0.00
2017-11-28T04:27:31.395Z,0.00
2017-11-28T04:28:31.411Z,0.00
2017-11-28T04:29:31.425Z,0.00
2017-11-28T04:30:31.434Z,0.00
2017-11-28T04:31:31.465Z,0.00
2017-11-28T04:32:31.471Z,0.00
2017-11-28T04:33:31.485Z,0.00
2017-11-28T04:34:31.802Z,0.00
2017-11-28T04:35:31.503Z,0.00
2017-11-28T04:36:31.525Z,0.00
2017-11-28T04:37:31.540Z,0.00
2017-11-28T04:38:31.555Z,0.00
2017-11-28T04:39:31.563Z,0.00
2017-11-28T04:40:31.598Z,0.00
2017-11-28T04:41:31.595Z,0.00
2017-11-28T04:42:31.616Z,0.00
2017-11-28T04:43:31.631Z,0.00
2017-11-28T04:44:31.884Z,0.00
2017-11-28T04:45:31.654Z,0.00
2017-11-28T04:46:31.670Z,0.00
2017-11-28T04:47:31.685Z,0.00
2017-11-28T04:48:31.701Z,0.00
2017-11-28T04:49:31.721Z,0.00
2017-11-28T04:50:31.731Z,0.00
2017-11-28T04:51:31.752Z,0.00
2017-11-28T04:52:31.758Z,0.00
2017-11-28T04:53:31.765Z,0.00
2017-11-28T04:54:31.791Z,0.00
2017-11-28T04:55:31.799Z,0.00
2017-11-28T04:56:31.814Z,0.00
2017-11-28T04:57:31.824Z,0.00
2017-11-28T04:58:31.852Z,0.00
2017-11-28T04:59:31.854Z,0.00
2017-11-28T05:00:31.882Z,0.00
2017-11-28T05:01:31.884Z,0.00
2017-11-28T05:02:31.919Z,0.00
2017-11-28T05:03:31.921Z,0.00
2017-11-28T05:04:32.241Z,0.00
2017-11-28T05:05:31.950Z,0.00
2017-11-28T05:06:31.963Z,0.00
2017-11-28T05:07:31.986Z,0.00
2017-11-28T05:08:31.985Z,0.00
2017-11-28T05:09:32.005Z,0.00
2017-11-28T05:10:32.020Z,0.00
2017-11-28T05:11:32.043Z,0.00
2017-11-28T05:12:32.052Z,0.00
2017-11-28T05:13:32.065Z,0.00
2017-11-28T05:14:32.076Z,0.00
2017-11-28T05:15:32.103Z,0.00
2017-11-28T05:16:32.105Z,0.00
2017-11-28T05:17:32.141Z,0.00
2017-11-28T05:18:32.144Z,0.00
2017-11-28T05:19:32.145Z,0.00
2017-11-28T05:20:32.173Z,0.00
2017-11-28T05:21:32.197Z,0.00
2017-11-28T05:22:32.197Z,0.00
2017-11-28T05:23:32.213Z,0.00
2017-11-28T05:24:32.226Z,0.00
2017-11-28T05:25:32.241Z,0.00
2017-11-28T05:26:32.256Z,0.00
2017-11-28T05:27:32.265Z,0.00
2017-11-28T05:28:32.284Z,0.00
2017-11-28T05:29:32.295Z,0.00
2017-11-28T05:30:32.305Z,0.00
2017-11-28T05:31:32.327Z,0.00
2017-11-28T05:32:32.334Z,0.00
2017-11-28T05:33:32.357Z,0.00
2017-11-28T05:34:32.665Z,0.00
2017-11-28T05:35:32.386Z,0.00
2017-11-28T05:36:32.403Z,0.00
2017-11-28T05:37:32.406Z,0.00
2017-11-28T05:38:32.432Z,0.00
2017-11-28T05:39:32.441Z,0.00
2017-11-28T05:40:32.463Z,0.00
2017-11-28T05:41:32.465Z,0.00
2017-11-28T05:42:32.492Z,0.00
2017-11-28T05:43:32.495Z,0.00
2017-11-28T05:44:32.524Z,0.00
2017-11-28T05:45:32.525Z,0.00
2017-11-28T05:46:32.535Z,0.00
2017-11-28T05:47:32.562Z,0.00
2017-11-28T05:48:32.565Z,0.00
2017-11-28T05:49:32.587Z,0.00
2017-11-28T05:50:32.595Z,0.00
2017-11-28T05:51:32.623Z,0.00
2017-11-28T05:52:32.644Z,0.00
2017-11-28T05:53:32.635Z,0.00
2017-11-28T05:54:32.656Z,0.00
2017-11-28T05:55:32.683Z,0.00
2017-11-28T05:56:32.692Z,0.00
2017-11-28T05:57:32.700Z,0.00
2017-11-28T05:58:32.722Z,0.00
2017-11-28T05:59:32.726Z,0.00
2017-11-28T06:00:32.742Z,0.00
2017-11-28T06:01:32.765Z,0.00
2017-11-28T06:02:32.764Z,0.00
2017-11-28T06:03:32.785Z,0.00
2017-11-28T06:04:32.795Z,0.00
2017-11-28T06:05:32.822Z,0.00
2017-11-28T06:06:32.825Z,0.00
2017-11-28T06:07:32.834Z,0.00
2017-11-28T06:08:32.856Z,0.00
2017-11-28T06:09:33.167Z,0.00
2017-11-28T06:10:32.886Z,0.00
2017-11-28T06:11:32.894Z,0.00
2017-11-28T06:12:32.923Z,0.00
2017-11-28T06:13:32.931Z,0.00
2017-11-28T06:14:32.934Z,0.00
2017-11-28T06:15:32.961Z,0.00
2017-11-28T06:16:32.964Z,0.00
2017-11-28T06:17:32.990Z,0.00
2017-11-28T06:18:33.001Z,4.00
2017-11-28T06:19:33.022Z,4.00
2017-11-28T06:20:33.030Z,4.00
2017-11-28T06:21:33.033Z,4.00
2017-11-28T06:22:33.053Z,4.00
2017-11-28T06:23:33.063Z,8.00
2017-11-28T06:24:33.085Z,4.00
2017-11-28T06:25:33.100Z,8.00
2017-11-28T06:26:33.109Z,8.00
2017-11-28T06:27:33.131Z,12.00
2017-11-28T06:28:33.144Z,12.00
2017-11-28T06:29:33.159Z,16.00
2017-11-28T06:30:33.168Z,20.00
2017-11-28T06:31:33.190Z,24.00
2017-11-28T06:32:33.193Z,24.00
2017-11-28T06:33:33.206Z,28.00
2017-11-28T06:34:33.223Z,32.00
2017-11-28T06:35:33.232Z,36.00
2017-11-28T06:36:33.260Z,40.00
2017-11-28T06:37:33.268Z,44.00
2017-11-28T06:38:33.290Z,48.00
2017-11-28T06:39:33.571Z,56.00
2017-11-28T06:40:33.309Z,60.00
2017-11-28T06:41:33.325Z,64.00
2017-11-28T06:42:33.336Z,72.00
2017-11-28T06:43:33.349Z,80.00
2017-11-28T06:44:33.369Z,88.00
2017-11-28T06:45:33.378Z,96.00
2017-11-28T06:46:33.392Z,104.00
2017-11-28T06:47:33.401Z,112.00
2017-11-28T06:48:33.437Z,120.00
2017-11-28T06:49:33.438Z,120.00
2017-11-28T06:50:33.453Z,128.00
2017-11-28T06:51:33.462Z,132.00
2017-11-28T06:52:33.477Z,136.00
2017-11-28T06:53:33.499Z,144.00
2017-11-28T06:54:33.508Z,148.00
2017-11-28T06:55:33.513Z,160.00
2017-11-28T06:56:33.537Z,168.00
2017-11-28T06:57:33.546Z,184.00
2017-11-28T06:58:33.562Z,204.00
2017-11-28T06:59:33.827Z,228.00
2017-11-28T07:00:33.581Z,252.00
2017-11-28T07:01:33.608Z,280.00
2017-11-28T07:02:33.611Z,304.00
2017-11-28T07:03:33.638Z,324.00
2017-11-28T07:04:33.648Z,336.00
2017-11-28T07:05:33.661Z,348.00
2017-11-28T07:06:33.670Z,364.00
2017-11-28T07:07:33.681Z,388.00
2017-11-28T07:08:33.719Z,412.00
2017-11-28T07:09:33.717Z,424.00
2017-11-28T07:10:33.736Z,444.00
2017-11-28T07:11:33.740Z,460.00
2017-11-28T07:12:33.756Z,476.00
2017-11-28T07:13:33.783Z,492.00
2017-11-28T07:14:33.785Z,516.00
2017-11-28T07:15:33.801Z,548.00
2017-11-28T07:16:33.818Z,564.00
2017-11-28T07:17:33.826Z,568.00
2017-11-28T07:18:33.854Z,568.00
2017-11-28T07:19:34.105Z,568.00
2017-11-28T07:20:33.876Z,572.00
2017-11-28T07:21:33.878Z,624.00
2017-11-28T07:22:33.901Z,672.00
2017-11-28T07:23:33.916Z,716.00
2017-11-28T07:24:33.924Z,772.00
2017-11-28T07:25:33.945Z,808.00
2017-11-28T07:26:33.969Z,816.00
2017-11-28T07:27:33.982Z,880.00
2017-11-28T07:28:33.985Z,964.00
2017-11-28T07:29:33.989Z,1032.00
2017-11-28T07:30:34.011Z,1084.00
2017-11-28T07:31:34.017Z,1124.00
2017-11-28T07:32:34.046Z,1140.00
2017-11-28T07:33:34.054Z,1056.00
2017-11-28T07:34:34.070Z,1108.00
2017-11-28T07:35:34.090Z,1252.00
2017-11-28T07:36:34.087Z,1268.00
2017-11-28T07:37:34.112Z,1276.00
2017-11-28T07:38:34.117Z,1356.00
2017-11-28T07:39:34.409Z,1484.00
2017-11-28T07:40:34.149Z,1540.00
2017-11-28T07:41:34.175Z,1524.00
2017-11-28T07:42:34.178Z,1516.00
2017-11-28T07:43:34.188Z,1564.00
2017-11-28T07:44:34.208Z,1596.00
2017-11-28T07:45:34.217Z,1704.00
2017-11-28T07:46:34.245Z,1872.00
2017-11-28T07:47:34.247Z,2016.00
2017-11-28T07:48:34.270Z,2076.00
2017-11-28T07:49:34.289Z,2112.00
2017-11-28T07:50:34.303Z,2176.00
2017-11-28T07:51:34.309Z,2236.00
2017-11-28T07:52:34.324Z,2248.00
2017-11-28T07:53:34.344Z,2268.00
2017-11-28T07:54:34.353Z,2360.00
2017-11-28T07:55:34.372Z,2532.00
2017-11-28T07:56:34.386Z,2780.00
2017-11-28T07:57:34.399Z,3080.00
2017-11-28T07:58:34.416Z,3312.00
2017-11-28T07:59:34.418Z,3444.00
2017-11-28T08:00:34.438Z,3664.00
2017-11-28T08:01:34.454Z,4000.00
2017-11-28T08:02:34.468Z,4332.00
2017-11-28T08:03:34.484Z,4580.00
2017-11-28T08:04:34.770Z,4704.00
2017-11-28T08:05:34.524Z,4668.00
2017-11-28T08:06:34.535Z,4572.00
2017-11-28T08:07:34.546Z,4432.00
2017-11-28T08:08:34.559Z,4244.00
2017-11-28T08:09:34.571Z,4128.00
2017-11-28T08:10:34.589Z,4320.00
2017-11-28T08:11:34.605Z,4788.00
2017-11-28T08:12:34.620Z,5272.00
2017-11-28T08:13:34.635Z,5664.00
2017-11-28T08:14:34.651Z,5912.00
2017-11-28T08:15:34.668Z,5912.00
2017-11-28T08:16:34.681Z,5668.00
2017-11-28T08:17:34.696Z,5244.00
2017-11-28T08:18:34.717Z,4764.00
2017-11-28T08:19:34.976Z,4384.00
2017-11-28T08:20:34.753Z,4124.00
2017-11-28T08:21:34.749Z,3984.00
2017-11-28T08:22:34.771Z,3920.00
2017-11-28T08:23:34.786Z,3832.00
2017-11-28T08:24:34.821Z,3748.00
2017-11-28T08:25:34.817Z,3776.00
2017-11-28T08:26:34.837Z,3888.00
2017-11-28T08:27:34.847Z,4012.00
2017-11-28T08:28:34.876Z,4096.00
2017-11-28T08:29:34.877Z,4108.00
2017-11-28T08:30:34.898Z,4076.00
2017-11-28T08:31:34.908Z,4028.00
2017-11-28T08:32:34.923Z,3984.00
2017-11-28T08:33:34.935Z,4020.00
2017-11-28T08:34:34.953Z,4120.00
2017-11-28T08:35:34.962Z,4220.00
2017-11-28T08:36:34.990Z,4256.00
2017-11-28T08:37:34.992Z,4248.00
2017-11-28T08:38:35.028Z,4224.00
2017-11-28T08:39:35.022Z,4212.00
2017-11-28T08:40:35.050Z,4192.00
2017-11-28T08:41:35.052Z,4164.00
2017-11-28T08:42:35.074Z,4108.00
2017-11-28T08:43:35.091Z,4024.00
2017-11-28T08:44:35.114Z,3916.00
2017-11-28T08:45:35.124Z,3864.00
2017-11-28T08:46:35.141Z,3928.00
2017-11-28T08:47:35.143Z,4124.00
2017-11-28T08:48:35.171Z,4360.00
2017-11-28T08:49:35.181Z,4536.00
2017-11-28T08:50:35.201Z,4560.00
2017-11-28T08:51:35.205Z,4456.00
2017-11-28T08:52:35.231Z,4328.00
2017-11-28T08:53:35.254Z,4236.00
2017-11-28T08:54:35.255Z,4172.00
2017-11-28T08:55:35.284Z,4100.00
2017-11-28T08:56:35.294Z,4020.00
2017-11-28T08:57:35.313Z,4024.00
2017-11-28T08:58:35.324Z,4092.00
2017-11-28T08:59:35.593Z,4180.00
2017-11-28T09:00:35.346Z,4308.00
2017-11-28T09:01:35.376Z,4456.00
2017-11-28T09:02:35.383Z,4600.00
2017-11-28T09:03:35.405Z,4712.00
2017-11-28T09:04:35.414Z,4780.00
2017-11-28T09:05:35.431Z,4796.00
2017-11-28T09:06:35.451Z,4796.00
2017-11-28T09:07:35.459Z,4808.00
2017-11-28T09:08:35.486Z,4844.00
2017-11-28T09:09:35.494Z,4892.00
2017-11-28T09:10:35.510Z,4928.00
2017-11-28T09:11:35.526Z,4972.00
2017-11-28T09:12:35.540Z,5172.00
2017-11-28T09:13:35.551Z,5612.00
2017-11-28T09:14:35.577Z,6252.00
2017-11-28T09:15:35.580Z,6872.00
2017-11-28T09:16:35.608Z,7176.00
2017-11-28T09:17:35.617Z,7032.00
2017-11-28T09:18:35.638Z,6560.00
2017-11-28T09:19:35.673Z,6056.00
2017-11-28T09:20:35.661Z,5780.00
2017-11-28T09:21:35.682Z,5740.00
2017-11-28T09:22:35.700Z,5936.00
2017-11-28T09:23:35.713Z,6284.00
2017-11-28T09:24:35.722Z,6560.00
2017-11-28T09:25:35.750Z,6704.00
2017-11-28T09:26:35.754Z,6568.00
2017-11-28T09:27:35.774Z,6356.00
2017-11-28T09:28:35.795Z,6240.00
2017-11-28T09:29:35.808Z,6196.00
2017-11-28T09:30:35.833Z,6280.00
2017-11-28T09:31:35.840Z,6448.00
2017-11-28T09:32:35.863Z,6480.00
2017-11-28T09:33:35.872Z,6464.00
2017-11-28T09:34:35.893Z,6468.00
2017-11-28T09:35:35.922Z,6556.00
2017-11-28T09:36:35.915Z,6788.00
2017-11-28T09:37:35.937Z,7256.00
2017-11-28T09:38:35.946Z,7952.00
2017-11-28T09:39:35.968Z,8700.00
2017-11-28T09:40:35.978Z,9212.00
2017-11-28T09:41:35.998Z,9340.00
2017-11-28T09:42:36.020Z,9236.00
2017-11-28T09:43:36.029Z,8568.00
2017-11-28T09:44:36.056Z,7480.00
2017-11-28T09:45:36.066Z,6412.00
2017-11-28T09:46:36.089Z,5568.00
2017-11-28T09:47:36.107Z,4988.00
2017-11-28T09:48:36.117Z,4776.00
2017-11-28T09:49:36.140Z,4588.00
2017-11-28T09:50:36.141Z,4648.00
2017-11-28T09:51:36.168Z,4844.00
2017-11-28T09:52:36.191Z,5156.00
2017-11-28T09:53:36.192Z,5532.00
2017-11-28T09:54:36.221Z,5760.00
2017-11-28T09:55:36.242Z,5684.00
2017-11-28T09:56:36.243Z,5248.00
2017-11-28T09:57:36.266Z,5244.00
2017-11-28T09:58:36.274Z,5808.00
2017-11-28T09:59:36.296Z,6236.00
2017-11-28T10:00:36.304Z,6288.00
2017-11-28T10:01:36.326Z,6088.00
2017-11-28T10:02:36.348Z,6128.00
2017-11-28T10:03:36.359Z,6156.00
2017-11-28T10:04:36.377Z,5980.00
2017-11-28T10:05:36.402Z,6064.00
2017-11-28T10:06:36.409Z,5988.00
2017-11-28T10:07:36.429Z,5972.00
2017-11-28T10:08:36.438Z,5900.00
2017-11-28T10:09:36.466Z,5820.00
2017-11-28T10:10:36.475Z,5604.00
2017-11-28T10:11:36.489Z,5588.00
2017-11-28T10:12:36.502Z,5684.00
2017-11-28T10:13:36.521Z,6236.00
2017-11-28T10:14:36.549Z,6508.00
2017-11-28T10:15:36.551Z,6460.00
2017-11-28T10:16:36.571Z,6212.00
2017-11-28T10:17:36.594Z,6680.00
2017-11-28T10:18:36.603Z,6828.00
2017-11-28T10:19:36.628Z,6716.00
2017-11-28T10:20:36.639Z,6920.00
2017-11-28T10:21:36.653Z,7468.00
2017-11-28T10:22:36.682Z,7752.00
2017-11-28T10:23:36.690Z,8000.00
2017-11-28T10:24:36.712Z,8084.00
2017-11-28T10:25:36.714Z,7988.00
2017-11-28T10:26:36.755Z,7828.00
2017-11-28T10:27:36.764Z,7944.00
2017-11-28T10:28:36.765Z,8244.00
2017-11-28T10:29:36.788Z,8464.00
2017-11-28T10:30:36.821Z,8116.00
2017-11-28T10:31:36.817Z,7760.00
2017-11-28T10:32:36.850Z,7844.00
2017-11-28T10:33:36.848Z,7804.00
2017-11-28T10:34:36.876Z,7868.00
2017-11-28T10:35:36.897Z,8000.00
2017-11-28T10:36:36.907Z,8424.00
2017-11-28T10:37:36.922Z,8792.00
2017-11-28T10:38:36.930Z,8408.00
2017-11-28T10:39:36.951Z,8084.00
2017-11-28T10:40:37.010Z,7792.00
2017-11-28T10:41:36.981Z,8508.00
2017-11-28T10:42:37.013Z,9564.00
2017-11-28T10:43:37.025Z,10092.00
2017-11-28T10:44:37.033Z,10284.00
2017-11-28T10:45:37.078Z,10256.00
2017-11-28T10:46:37.072Z,10000.00
2017-11-28T10:47:37.092Z,9732.00
2017-11-28T10:48:37.108Z,9524.00
2017-11-28T10:49:37.119Z,9408.00
2017-11-28T10:50:37.140Z,9336.00
2017-11-28T10:51:37.158Z,9276.00
2017-11-28T10:52:37.172Z,9232.00
2017-11-28T10:53:37.195Z,9292.00
2017-11-28T10:54:37.216Z,8676.00
2017-11-28T10:55:37.218Z,7772.00
2017-11-28T10:56:37.240Z,7116.00
2017-11-28T10:57:37.267Z,5896.00
2017-11-28T10:58:37.277Z,5100.00
2017-11-28T10:59:37.298Z,4616.00
2017-11-28T11:00:37.308Z,5188.00
2017-11-28T11:01:37.322Z,5400.00
2017-11-28T11:02:37.343Z,5784.00
2017-11-28T11:03:37.353Z,5764.00
2017-11-28T11:04:37.388Z,5792.00
2017-11-28T11:05:37.395Z,6008.00
2017-11-28T11:06:37.408Z,5896.00
2017-11-28T11:07:37.431Z,6416.00
2017-11-28T11:08:37.455Z,8468.00
2017-11-28T11:09:37.455Z,6520.00
2017-11-28T11:10:37.475Z,6008.00
2017-11-28T11:11:37.492Z,5720.00
2017-11-28T11:12:37.508Z,5524.00
2017-11-28T11:13:37.535Z,5844.00
2017-11-28T11:14:37.544Z,5928.00
2017-11-28T11:15:37.572Z,5016.00
2017-11-28T11:16:37.580Z,3664.00
2017-11-28T11:17:37.589Z,3552.00
2017-11-28T11:18:37.610Z,4084.00
2017-11-28T11:19:37.619Z,3836.00
2017-11-28T11:20:37.640Z,3552.00
2017-11-28T11:21:37.668Z,4180.00
2017-11-28T11:22:37.672Z,4408.00
2017-11-28T11:23:37.694Z,6084.00
2017-11-28T11:24:37.702Z,6572.00
2017-11-28T11:25:37.723Z,6432.00
2017-11-28T11:26:37.750Z,6624.00
2017-11-28T11:27:37.766Z,5468.00
2017-11-28T11:28:37.781Z,5084.00
2017-11-28T11:29:37.802Z,5568.00
2017-11-28T11:30:37.813Z,5800.00
2017-11-28T11:31:37.827Z,4964.00
2017-11-28T11:32:37.841Z,5116.00
2017-11-28T11:33:37.856Z,4904.00
2017-11-28T11:34:37.883Z,4368.00
2017-11-28T11:35:37.904Z,4832.00
2017-11-28T11:36:37.914Z,5044.00
2017-11-28T11:37:37.917Z,5160.00
2017-11-28T11:38:37.938Z,6212.00
2017-11-28T11:39:37.947Z,4884.00
2017-11-28T11:40:37.976Z,4640.00
2017-11-28T11:41:37.991Z,5232.00
2017-11-28T11:42:38.005Z,4644.00
2017-11-28T11:43:38.021Z,4480.00
2017-11-28T11:44:38.041Z,4480.00
2017-11-28T11:45:38.050Z,4272.00
2017-11-28T11:46:38.064Z,4060.00
2017-11-28T11:47:38.088Z,4256.00
2017-11-28T11:48:38.110Z,4916.00
2017-11-28T11:49:38.118Z,5536.00
2017-11-28T11:50:38.150Z,5660.00
2017-11-28T11:51:38.141Z,5160.00
2017-11-28T11:52:38.162Z,4820.00
2017-11-28T11:53:38.172Z,4556.00
2017-11-28T11:54:38.199Z,5556.00
2017-11-28T11:55:38.221Z,7172.00
2017-11-28T11:56:38.223Z,7084.00
2017-11-28T11:57:38.250Z,6296.00
2017-11-28T11:58:38.252Z,6220.00
2017-11-28T11:59:38.280Z,6720.00
2017-11-28T12:00:38.296Z,7328.00
2017-11-28T12:01:38.305Z,7352.00
2017-11-28T12:02:38.332Z,8124.00
2017-11-28T12:03:38.341Z,9392.00
2017-11-28T12:04:38.376Z,11092.00
2017-11-28T12:05:38.372Z,9116.00
2017-11-28T12:06:38.396Z,7984.00
2017-11-28T12:07:38.414Z,6996.00
2017-11-28T12:08:38.430Z,7232.00
2017-11-28T12:09:38.447Z,7932.00
2017-11-28T12:10:38.465Z,8836.00
2017-11-28T12:11:38.469Z,8236.00
2017-11-28T12:12:38.489Z,6876.00
2017-11-28T12:13:38.509Z,7484.00
2017-11-28T12:14:38.520Z,8188.00
2017-11-28T12:15:38.542Z,8124.00
2017-11-28T12:16:38.571Z,7564.00
2017-11-28T12:17:38.572Z,7560.00
2017-11-28T12:18:38.595Z,7008.00
2017-11-28T12:19:38.609Z,6588.00
2017-11-28T12:20:38.629Z,6908.00
2017-11-28T12:21:38.639Z,6500.00
2017-11-28T12:22:38.661Z,5920.00
2017-11-28T12:23:38.676Z,5652.00
2017-11-28T12:24:38.685Z,6132.00
2017-11-28T12:25:38.706Z,6524.00
2017-11-28T12:26:38.727Z,6860.00
2017-11-28T12:27:38.742Z,6276.00
2017-11-28T12:28:38.762Z,5572.00
2017-11-28T12:29:38.785Z,5428.00
2017-11-28T12:30:38.793Z,5908.00
2017-11-28T12:31:38.815Z,6196.00
2017-11-28T12:32:38.830Z,5388.00
2017-11-28T12:33:38.840Z,4824.00
2017-11-28T12:34:38.861Z,4104.00
2017-11-28T12:35:38.878Z,3708.00
2017-11-28T12:36:38.897Z,4196.00
2017-11-28T12:37:38.916Z,4840.00
2017-11-28T12:38:38.940Z,4612.00
2017-11-28T12:39:38.943Z,4348.00
2017-11-28T12:40:38.970Z,3740.00
2017-11-28T12:41:38.973Z,3448.00
2017-11-28T12:42:39.000Z,3356.00
2017-11-28T12:43:39.023Z,3264.00